createdAt,value
2022-12-16T00:00:27.545Z,49.00
2022-12-16T00:02:53.900Z,52.80
2022-12-16T00:05:20.284Z,48.15
2022-12-16T00:07:47.159Z,51.30
2022-12-16T00:10:13.390Z,52.67
2022-12-16T00:12:39.678Z,50.70
2022-12-16T00:15:06.079Z,55.50
2022-12-16T00:17:32.420Z,53.88
2022-12-16T00:19:58.714Z,52.30
2022-12-16T00:22:24.979Z,51.58
2022-12-16T00:24:51.366Z,52.10
2022-12-16T00:27:18.427Z,51.60
2022-12-16T00:29:44.639Z,52.63
2022-12-16T00:32:10.882Z,51.38
2022-12-16T00:34:37.133Z,56.00
2022-12-16T00:37:03.379Z,49.97
2022-12-16T00:39:29.576Z,52.10
2022-12-16T00:41:55.847Z,54.25
2022-12-16T00:44:22.201Z,52.85
2022-12-16T00:46:48.457Z,53.30
2022-12-16T00:49:14.744Z,52.08
2022-12-16T00:51:40.938Z,55.20
2022-12-16T00:54:07.232Z,51.78
2022-12-16T00:56:33.506Z,51.78
2022-12-16T00:58:59.707Z,52.47
2022-12-16T01:01:25.996Z,54.40
2022-12-16T01:03:52.415Z,53.75
2022-12-16T01:06:18.722Z,52.17
2022-12-16T01:08:51.121Z,54.38
2022-12-16T01:11:18.980Z,54.08
2022-12-16T01:13:45.873Z,51.20
2022-12-16T01:16:12.158Z,52.28
2022-12-16T01:18:38.470Z,52.85
2022-12-16T01:21:08.483Z,50.03
2022-12-16T01:23:35.428Z,49.90
2022-12-16T01:26:02.146Z,50.83
2022-12-16T01:28:29.132Z,50.85
2022-12-16T01:31:01.485Z,49.83
2022-12-16T01:33:29.022Z,51.97
2022-12-16T01:35:59.829Z,49.78
2022-12-16T01:38:26.050Z,46.92
2022-12-16T01:40:52.283Z,52.75
2022-12-16T01:43:20.189Z,50.35
2022-12-16T01:45:46.435Z,51.72
2022-12-16T01:48:21.616Z,53.97
2022-12-16T01:50:48.684Z,52.10
2022-12-16T01:53:15.423Z,49.22
2022-12-16T01:55:43.114Z,48.03
2022-12-16T01:58:12.376Z,49.72
2022-12-16T02:00:38.770Z,50.25
2022-12-16T02:03:05.435Z,52.08
2022-12-16T02:05:33.564Z,53.95
2022-12-16T02:08:04.247Z,52.70
2022-12-16T02:10:42.354Z,53.25
2022-12-16T02:13:19.017Z,52.30
2022-12-16T02:16:03.994Z,54.17
2022-12-16T02:18:43.050Z,51.95
2022-12-16T02:21:15.482Z,53.20
2022-12-16T02:23:54.011Z,53.10
2022-12-16T02:26:40.013Z,53.05
2022-12-16T02:29:24.885Z,51.47
2022-12-16T02:32:10.118Z,47.90
2022-12-16T02:34:46.097Z,50.17
2022-12-16T02:37:18.066Z,51.20
2022-12-16T02:39:50.507Z,49.47
2022-12-16T02:42:21.233Z,49.55
2022-12-16T02:44:53.018Z,49.25
2022-12-16T02:47:19.255Z,49.63
2022-12-16T02:49:46.978Z,48.88
2022-12-16T02:52:13.478Z,51.05
2022-12-16T02:54:39.970Z,46.88
2022-12-16T02:57:25.146Z,49.63
2022-12-16T02:59:51.328Z,47.83
2022-12-16T03:02:25.095Z,47.65
2022-12-16T03:04:54.359Z,49.22
2022-12-16T03:07:21.873Z,49.42
2022-12-16T03:09:49.077Z,46.03
2022-12-16T03:12:16.539Z,48.15
2022-12-16T03:14:44.734Z,48.92
2022-12-16T03:17:11.690Z,48.67
2022-12-16T03:19:39.207Z,50.53
2022-12-16T03:22:29.086Z,48.88
2022-12-16T03:24:55.492Z,47.10
2022-12-16T03:27:27.374Z,48.95
2022-12-16T03:29:55.069Z,50.25
2022-12-16T03:32:28.753Z,48.03
2022-12-16T03:35:02.808Z,46.60
2022-12-16T03:37:31.128Z,43.70
2022-12-16T03:40:00.199Z,50.10
2022-12-16T03:42:26.794Z,47.08
2022-12-16T03:44:53.157Z,46.08
2022-12-16T03:47:23.732Z,45.97
2022-12-16T03:52:16.524Z,44.78
2022-12-16T03:54:42.755Z,45.17
2022-12-16T03:57:14.764Z,45.97
2022-12-16T03:59:41.721Z,44.97
2022-12-16T04:02:08.010Z,47.47
2022-12-16T04:04:34.367Z,47.58
2022-12-16T04:07:19.157Z,46.65
2022-12-16T04:09:45.809Z,45.97
2022-12-16T04:12:30.422Z,47.65
2022-12-16T04:15:15.055Z,49.30
2022-12-16T04:18:00.056Z,47.50
2022-12-16T04:20:48.386Z,45.83
2022-12-16T04:23:34.021Z,45.67
2022-12-16T04:26:00.395Z,46.03
2022-12-16T04:28:26.607Z,44.42
2022-12-16T04:30:52.987Z,46.25
2022-12-16T04:33:38.064Z,45.70
2022-12-16T04:36:23.243Z,42.05
2022-12-16T04:39:08.029Z,44.17
2022-12-16T04:41:53.173Z,44.05
2022-12-16T04:44:38.212Z,42.05
2022-12-16T04:47:22.975Z,42.47
2022-12-16T04:50:07.997Z,43.63
2022-12-16T04:52:53.090Z,44.70
2022-12-16T04:55:38.015Z,44.05
2022-12-16T04:58:23.074Z,42.22
2022-12-16T05:01:08.384Z,42.47
2022-12-16T05:03:53.660Z,45.15
2022-12-16T05:06:38.635Z,44.53
2022-12-16T05:09:24.018Z,44.97
2022-12-16T05:12:08.830Z,43.75
2022-12-16T05:14:53.645Z,42.58
2022-12-16T05:17:39.162Z,43.50
2022-12-16T05:20:24.758Z,45.28
2022-12-16T05:23:09.945Z,45.22
2022-12-16T05:25:55.022Z,46.25
2022-12-16T05:28:39.918Z,45.03
2022-12-16T05:31:24.883Z,45.20
2022-12-16T05:34:09.698Z,45.65
2022-12-16T05:36:54.703Z,44.80
2022-12-16T05:39:39.441Z,49.55
2022-12-16T05:42:24.500Z,49.13
2022-12-16T05:45:09.635Z,47.40
2022-12-16T05:47:54.419Z,49.15
2022-12-16T05:50:39.406Z,48.40
2022-12-16T05:53:24.301Z,47.50
2022-12-16T05:56:09.128Z,51.40
2022-12-16T05:58:53.884Z,47.33
2022-12-16T06:01:39.128Z,48.72
2022-12-16T06:04:24.254Z,47.80
2022-12-16T06:07:09.430Z,46.03
2022-12-16T06:09:56.895Z,47.78
2022-12-16T06:12:45.346Z,47.90
2022-12-16T06:15:30.027Z,47.70
2022-12-16T06:18:16.264Z,46.58
2022-12-16T06:21:01.710Z,44.97
2022-12-16T06:23:46.446Z,46.80
2022-12-16T06:26:31.431Z,45.08
2022-12-16T06:29:16.333Z,45.63
2022-12-16T06:32:01.324Z,43.13
2022-12-16T06:34:45.993Z,44.83
2022-12-16T06:37:31.169Z,40.83
2022-12-16T06:40:15.948Z,45.58
2022-12-16T06:43:01.282Z,46.15
2022-12-16T06:45:46.160Z,44.75
2022-12-16T06:48:31.354Z,45.95
2022-12-16T06:51:16.357Z,48.10
2022-12-16T06:54:01.327Z,48.15
2022-12-16T06:56:46.406Z,45.47
2022-12-16T06:59:31.190Z,45.92
2022-12-16T07:02:16.605Z,49.25
2022-12-16T07:05:01.378Z,47.88
2022-12-16T07:07:46.207Z,47.97
2022-12-16T07:10:31.149Z,47.03
2022-12-16T07:13:16.606Z,48.20
2022-12-16T07:16:01.633Z,45.38
2022-12-16T07:18:46.440Z,45.45
2022-12-16T07:21:31.633Z,45.17
2022-12-16T07:24:16.267Z,45.10
2022-12-16T07:27:01.038Z,46.53
2022-12-16T07:29:46.063Z,45.00
2022-12-16T07:32:31.190Z,49.15
2022-12-16T07:35:16.018Z,47.28
2022-12-16T07:38:17.800Z,46.40
2022-12-16T07:41:05.875Z,48.33
2022-12-16T07:43:50.776Z,46.83
2022-12-16T07:46:35.745Z,46.70
2022-12-16T07:49:22.354Z,49.83
2022-12-16T07:52:07.012Z,47.42
2022-12-16T07:55:11.709Z,47.85
2022-12-16T07:57:56.565Z,47.30
2022-12-16T08:00:41.070Z,48.03
2022-12-16T08:03:26.012Z,48.65
2022-12-16T08:06:11.070Z,47.20
2022-12-16T08:08:56.079Z,47.33
2022-12-16T08:11:40.881Z,46.58
2022-12-16T08:14:25.978Z,47.30
2022-12-16T08:17:11.077Z,46.13
2022-12-16T08:19:55.906Z,45.85
2022-12-16T08:22:40.946Z,45.95
2022-12-16T08:25:25.939Z,46.35
2022-12-16T08:28:14.820Z,47.67
2022-12-16T08:30:59.656Z,47.83
2022-12-16T08:33:44.628Z,45.55
2022-12-16T08:36:29.716Z,46.47
2022-12-16T08:39:14.477Z,46.95
2022-12-16T08:41:59.463Z,46.55
2022-12-16T08:44:44.453Z,49.22
2022-12-16T08:47:29.350Z,47.10
2022-12-16T08:50:14.325Z,47.30
2022-12-16T08:52:59.333Z,48.47
2022-12-16T08:55:44.174Z,48.22
2022-12-16T08:58:29.075Z,48.78
2022-12-16T09:01:14.244Z,49.90
2022-12-16T09:03:59.282Z,47.85
2022-12-16T09:06:44.438Z,47.35
2022-12-16T09:09:29.577Z,46.70
2022-12-16T09:12:14.266Z,49.60
2022-12-16T09:14:59.018Z,48.33
2022-12-16T09:17:43.938Z,51.85
2022-12-16T09:20:29.062Z,50.35
2022-12-16T09:23:13.814Z,48.97
2022-12-16T09:25:59.061Z,50.55
2022-12-16T09:28:44.079Z,48.53
2022-12-16T09:31:28.929Z,49.17
2022-12-16T09:34:13.887Z,49.85
2022-12-16T09:37:00.380Z,49.35
2022-12-16T09:39:45.197Z,50.10
2022-12-16T09:42:48.909Z,51.03
2022-12-16T09:45:45.530Z,51.53
2022-12-16T09:48:42.760Z,50.90
2022-12-16T09:51:28.127Z,51.13
2022-12-16T09:54:14.091Z,51.20
2022-12-16T09:57:00.180Z,49.35
2022-12-16T09:59:50.260Z,51.22
2022-12-16T10:02:36.126Z,50.60
2022-12-16T10:05:21.543Z,49.33
2022-12-16T10:08:13.108Z,47.95
2022-12-16T10:11:25.123Z,49.95
2022-12-16T10:14:19.421Z,47.65
2022-12-16T10:17:11.308Z,47.63
2022-12-16T10:20:15.086Z,48.65
2022-12-16T10:23:06.837Z,48.67
2022-12-16T10:25:57.561Z,49.00
2022-12-16T10:29:01.626Z,46.33
2022-12-16T10:31:46.832Z,47.05
2022-12-16T10:34:39.623Z,43.47
2022-12-16T10:37:24.663Z,44.05
2022-12-16T10:40:16.509Z,45.65
2022-12-16T10:43:04.374Z,44.70
2022-12-16T10:45:52.426Z,44.80
2022-12-16T10:48:47.960Z,43.25
2022-12-16T10:51:38.801Z,40.55
2022-12-16T10:54:41.324Z,42.00
2022-12-16T10:57:26.342Z,36.83
2022-12-16T11:00:26.332Z,36.20
2022-12-16T11:03:11.312Z,35.33
2022-12-16T11:05:56.367Z,34.35
2022-12-16T11:08:41.299Z,34.67
2022-12-16T11:11:33.694Z,33.33
2022-12-16T11:14:33.364Z,32.95
2022-12-16T11:17:30.039Z,32.45
2022-12-16T11:20:32.838Z,31.42
2022-12-16T11:23:33.375Z,29.60
2022-12-16T11:26:22.162Z,29.67
2022-12-16T11:29:25.845Z,29.30
2022-12-16T11:32:16.331Z,27.77
2022-12-16T11:35:02.563Z,28.88
2022-12-16T11:37:48.129Z,28.70
2022-12-16T11:40:34.033Z,29.58
2022-12-16T11:43:22.781Z,29.45
2022-12-16T11:46:09.457Z,26.92
2022-12-16T11:49:07.258Z,27.23
2022-12-16T11:51:59.758Z,28.25
2022-12-16T11:55:03.397Z,26.45
2022-12-16T11:57:56.890Z,26.77
2022-12-16T12:00:41.882Z,28.02
2022-12-16T12:03:31.549Z,26.33
2022-12-16T12:06:26.294Z,27.77
2022-12-16T12:09:29.754Z,27.92
2022-12-16T12:12:18.907Z,27.52
2022-12-16T12:15:13.451Z,27.30
2022-12-16T12:18:07.556Z,27.65
2022-12-16T12:21:06.667Z,26.58
2022-12-16T12:24:10.510Z,26.75
2022-12-16T12:26:56.355Z,28.65
2022-12-16T12:29:51.945Z,32.92
2022-12-16T12:32:48.614Z,32.92
2022-12-16T12:36:00.972Z,33.72
2022-12-16T12:39:04.787Z,34.05
2022-12-16T12:42:05.499Z,36.88
2022-12-16T12:44:50.455Z,38.03
2022-12-16T12:47:36.336Z,38.50
2022-12-16T12:50:30.779Z,37.50
2022-12-16T12:53:40.803Z,39.33
2022-12-16T12:56:31.257Z,39.22
2022-12-16T12:59:21.066Z,37.15
2022-12-16T13:02:07.071Z,36.35
2022-12-16T13:05:09.294Z,34.40
2022-12-16T13:07:54.209Z,30.70
2022-12-16T13:10:44.083Z,28.65
2022-12-16T13:13:44.645Z,26.92
2022-12-16T13:16:30.809Z,27.23
2022-12-16T13:19:44.750Z,28.77
2022-12-16T13:22:45.042Z,27.65
2022-12-16T13:25:49.503Z,26.52
2022-12-16T13:28:57.693Z,25.13
2022-12-16T13:31:43.276Z,25.73
2022-12-16T13:34:34.443Z,26.63
2022-12-16T13:37:26.864Z,25.52
2022-12-16T13:40:20.513Z,23.75
2022-12-16T13:43:05.313Z,24.27
2022-12-16T13:45:57.842Z,25.27
2022-12-16T13:48:47.919Z,26.42
2022-12-16T13:51:51.724Z,23.95
2022-12-16T13:54:36.677Z,25.73
2022-12-16T13:57:21.701Z,27.13
2022-12-16T14:00:06.966Z,27.80
2022-12-16T14:02:57.258Z,26.73
2022-12-16T14:05:43.911Z,26.98
2022-12-16T14:08:36.001Z,25.45
2022-12-16T14:11:25.434Z,27.13
2022-12-16T14:14:24.629Z,26.75
2022-12-16T14:17:11.253Z,24.27
2022-12-16T14:20:21.619Z,27.33
2022-12-16T14:23:06.484Z,25.77
2022-12-16T14:25:51.501Z,27.50
2022-12-16T14:28:46.584Z,28.73
2022-12-16T14:31:33.382Z,26.58
2022-12-16T14:34:20.001Z,27.55
2022-12-16T14:37:05.492Z,27.38
2022-12-16T14:39:58.798Z,26.17
2022-12-16T14:42:45.517Z,27.95
2022-12-16T14:45:41.285Z,26.73
2022-12-16T14:48:49.511Z,25.48
2022-12-16T14:51:35.143Z,27.98
2022-12-16T14:54:49.835Z,27.38
2022-12-16T14:57:36.416Z,25.00
2022-12-16T15:00:21.962Z,26.50
2022-12-16T15:03:09.108Z,27.98
2022-12-16T15:05:56.212Z,27.52
2022-12-16T15:08:41.853Z,27.60
2022-12-16T15:11:27.966Z,26.75
2022-12-16T15:14:14.467Z,27.00
2022-12-16T15:17:01.819Z,25.05
2022-12-16T15:19:48.165Z,29.60
2022-12-16T15:22:33.647Z,27.08
2022-12-16T15:25:18.846Z,29.70
2022-12-16T15:28:11.699Z,30.08
2022-12-16T15:30:56.473Z,29.65
2022-12-16T15:33:43.368Z,29.48
2022-12-16T15:36:48.697Z,30.77
2022-12-16T15:39:42.947Z,33.13
2022-12-16T15:42:57.330Z,31.08
2022-12-16T15:45:48.792Z,32.63
2022-12-16T15:48:38.753Z,34.70
2022-12-16T15:51:37.969Z,31.13
2022-12-16T15:54:22.927Z,31.85
2022-12-16T15:57:08.322Z,32.05
2022-12-16T15:59:54.319Z,33.08
2022-12-16T16:02:40.896Z,32.50
2022-12-16T16:05:37.195Z,33.38
2022-12-16T16:08:22.342Z,32.20
2022-12-16T16:11:07.547Z,32.55
2022-12-16T16:13:52.406Z,34.95
2022-12-16T16:16:37.397Z,31.95
2022-12-16T16:19:22.891Z,35.70
2022-12-16T16:22:07.645Z,34.60
2022-12-16T16:24:52.174Z,32.30
2022-12-16T16:27:37.107Z,33.20
2022-12-16T16:30:22.020Z,32.92
2022-12-16T16:33:06.800Z,31.10
2022-12-16T16:35:52.370Z,30.67
2022-12-16T16:38:37.245Z,31.17
2022-12-16T16:41:22.032Z,31.98
2022-12-16T16:44:07.017Z,30.85
2022-12-16T16:46:57.026Z,33.20
2022-12-16T16:49:43.645Z,31.88
2022-12-16T16:52:29.707Z,29.77
2022-12-16T16:55:14.723Z,31.20
2022-12-16T16:57:59.477Z,31.05
2022-12-16T17:00:44.364Z,30.23
2022-12-16T17:03:29.690Z,32.38
2022-12-16T17:06:15.031Z,32.92
2022-12-16T17:08:59.801Z,34.00
2022-12-16T17:11:45.042Z,33.78
2022-12-16T17:14:31.098Z,35.13
2022-12-16T17:17:15.959Z,35.50
2022-12-16T17:20:01.135Z,34.00
2022-12-16T17:22:45.921Z,36.45
2022-12-16T17:25:30.741Z,33.60
2022-12-16T17:28:15.815Z,32.60
2022-12-16T17:31:00.854Z,31.33
2022-12-16T17:33:45.606Z,33.10
2022-12-16T17:36:32.093Z,32.08
2022-12-16T17:39:17.253Z,32.70
2022-12-16T17:42:02.069Z,33.42
2022-12-16T17:44:46.882Z,31.60
2022-12-16T17:47:31.926Z,31.83
2022-12-16T17:50:16.889Z,32.85
2022-12-16T17:53:01.620Z,32.63
2022-12-16T17:55:46.648Z,33.20
2022-12-16T17:58:36.161Z,30.05
2022-12-16T18:01:23.167Z,32.50
2022-12-16T18:04:08.049Z,32.03
2022-12-16T18:06:53.236Z,31.92
2022-12-16T18:09:38.088Z,29.17
2022-12-16T18:12:23.130Z,31.15
2022-12-16T18:15:08.246Z,30.50
2022-12-16T18:17:53.508Z,30.13
2022-12-16T18:20:38.303Z,31.23
2022-12-16T18:23:23.387Z,29.35
2022-12-16T18:26:21.460Z,31.23
2022-12-16T18:29:06.179Z,29.33
2022-12-16T18:31:51.367Z,30.65
2022-12-16T18:34:36.253Z,31.10
2022-12-16T18:37:21.048Z,31.60
2022-12-16T18:40:06.197Z,31.52
2022-12-16T18:42:51.264Z,29.67
2022-12-16T18:45:36.164Z,30.83
2022-12-16T18:48:21.387Z,31.42
2022-12-16T18:51:16.050Z,30.00
2022-12-16T18:54:00.683Z,33.03
2022-12-16T18:56:45.560Z,32.47
2022-12-16T18:59:30.437Z,31.15
2022-12-16T19:02:15.382Z,30.13
2022-12-16T19:05:00.394Z,31.63
2022-12-16T19:07:45.390Z,31.60
2022-12-16T19:10:30.321Z,32.50
2022-12-16T19:13:15.537Z,30.60
2022-12-16T19:16:00.570Z,31.60
2022-12-16T19:18:45.731Z,31.45
2022-12-16T19:21:52.156Z,31.17
2022-12-16T19:24:56.313Z,30.98
2022-12-16T19:27:41.055Z,30.38
2022-12-16T19:30:26.484Z,30.67
2022-12-16T19:33:11.467Z,29.70
2022-12-16T19:35:56.842Z,31.25
2022-12-16T19:38:41.916Z,33.40
2022-12-16T19:41:32.315Z,32.95
2022-12-16T19:44:17.170Z,30.27
2022-12-16T19:47:02.092Z,32.45
2022-12-16T19:49:46.887Z,32.70
2022-12-16T19:52:32.081Z,31.77
2022-12-16T19:58:21.766Z,31.50
2022-12-16T20:01:06.582Z,34.10
2022-12-16T20:03:52.379Z,34.00
2022-12-16T20:06:41.273Z,34.47
2022-12-16T20:09:26.122Z,32.88
2022-12-16T20:12:10.870Z,34.95
2022-12-16T20:18:01.132Z,35.00
2022-12-16T20:20:45.899Z,35.42
2022-12-16T20:23:30.983Z,34.47
2022-12-16T20:26:17.487Z,33.67
2022-12-16T20:29:02.820Z,34.60
2022-12-16T20:31:47.892Z,33.95
2022-12-16T20:34:32.799Z,33.42
2022-12-16T20:37:17.857Z,32.97
2022-12-16T20:40:02.683Z,34.25
2022-12-16T20:42:47.779Z,31.73
2022-12-16T20:45:32.698Z,34.47
2022-12-16T20:48:18.385Z,35.17
2022-12-16T20:51:11.030Z,34.42
2022-12-16T20:53:56.535Z,33.47
2022-12-16T20:56:41.476Z,33.08
2022-12-16T20:59:26.515Z,33.80
2022-12-16T21:05:32.947Z,34.42
2022-12-16T21:08:17.720Z,33.35
2022-12-16T21:11:02.708Z,33.67
2022-12-16T21:13:48.066Z,35.53
2022-12-16T21:16:33.546Z,35.38
2022-12-16T21:19:18.615Z,37.45
2022-12-16T21:22:03.434Z,36.88
2022-12-16T21:24:48.233Z,37.38
2022-12-16T21:27:33.396Z,35.33
2022-12-16T21:30:18.363Z,36.65
2022-12-16T21:33:03.209Z,38.80
2022-12-16T21:36:01.922Z,37.88
2022-12-16T21:38:46.891Z,36.45
2022-12-16T21:41:31.675Z,36.03
2022-12-16T21:44:16.768Z,35.30
2022-12-16T21:47:01.864Z,35.28
2022-12-16T21:49:46.545Z,32.92
2022-12-16T21:52:31.693Z,35.55
2022-12-16T21:55:16.567Z,35.55
2022-12-16T21:58:01.338Z,35.42
2022-12-16T22:00:46.097Z,37.05
2022-12-16T22:03:31.123Z,36.05
2022-12-16T22:06:19.195Z,31.98
2022-12-16T22:09:04.054Z,34.65
2022-12-16T22:11:49.219Z,36.70
2022-12-16T22:14:34.161Z,38.00
2022-12-16T22:17:19.023Z,36.80
2022-12-16T22:20:03.956Z,34.40
2022-12-16T22:22:49.023Z,35.17
2022-12-16T22:25:33.666Z,34.25
2022-12-16T22:28:18.607Z,35.63
2022-12-16T22:31:03.672Z,33.30
2022-12-16T22:33:48.891Z,32.78
2022-12-16T22:36:33.833Z,33.20
2022-12-16T22:39:18.854Z,32.83
2022-12-16T22:42:03.611Z,32.63
2022-12-16T22:44:48.257Z,31.38
2022-12-16T22:47:33.268Z,31.42
2022-12-16T22:50:18.330Z,32.35
2022-12-16T22:53:03.206Z,31.55
2022-12-16T22:55:48.232Z,31.30
2022-12-16T22:58:33.270Z,31.25
2022-12-16T23:01:18.158Z,32.25
2022-12-16T23:04:03.085Z,29.50
2022-12-16T23:06:48.310Z,32.50
2022-12-16T23:09:33.031Z,31.67
2022-12-16T23:12:18.059Z,32.03
2022-12-16T23:15:02.926Z,31.02
2022-12-16T23:17:47.623Z,30.88
2022-12-16T23:20:32.826Z,31.33
2022-12-16T23:23:17.852Z,32.10
2022-12-16T23:26:12.498Z,33.45
2022-12-16T23:28:57.269Z,33.65
2022-12-16T23:31:42.261Z,33.15
2022-12-16T23:32:31.226Z,33.22
2022-12-16T23:34:27.541Z,35.25
2022-12-16T23:37:12.295Z,33.35
2022-12-16T23:39:57.266Z,32.05
2022-12-16T23:42:42.246Z,33.67
2022-12-16T23:45:27.459Z,35.15
2022-12-16T23:48:20.996Z,32.25
2022-12-16T23:51:06.202Z,35.35
2022-12-16T23:53:50.930Z,37.60
2022-12-16T23:56:36.492Z,35.40
2022-12-16T23:59:21.556Z,35.70
